Time;durP1;ratioP1;P1;durP2;ratioP2;P2;SDS_P1;SDS_P2;PMS_P1;PMS_P2;Temp;Humidity;BMP_temperature;BMP_pressure;BME280_temperature;BME280_humidity;BME280_pressure;Samples;Min_cycle;Max_cycle;Signal;HPM_P1;HPM_P2
2021/12/13 00:00:39;;;;;;;11.20;9.67;;;;;;;7.54;92.27;99177.50;5061839;28;20646;-86
2021/12/13 00:03:14;;;;;;;13.93;10.87;;;;;;;7.52;92.72;99184.53;5058266;28;20643;-86
2021/12/13 00:05:45;;;;;;;16.07;9.23;;;;;;;7.51;92.34;99178.47;5057879;28;20636;-85
2021/12/13 00:08:17;;;;;;;14.23;10.60;;;;;;;7.49;94.13;99182.88;5043955;28;20643;-86
2021/12/13 00:10:48;;;;;;;14.83;10.00;;;;;;;7.50;93.25;99175.94;5075117;28;20658;-86
2021/12/13 00:13:20;;;;;;;14.10;10.10;;;;;;;7.50;93.12;99174.22;5061359;28;20636;-86
2021/12/13 00:15:54;;;;;;;14.10;9.70;;;;;;;7.52;93.94;99184.53;5047256;28;20639;-86
2021/12/13 00:18:26;;;;;;;15.40;10.40;;;;;;;7.54;94.24;99188.72;5045739;28;21179;-86
2021/12/13 00:21:07;;;;;;;16.07;10.10;;;;;;;7.53;94.36;99189.66;5058731;28;20640;-86
2021/12/13 00:23:42;;;;;;;13.87;11.10;;;;;;;7.54;92.89;99186.13;5095631;28;21239;-86
2021/12/13 00:26:10;;;;;;;13.03;10.63;;;;;;;7.56;93.84;99186.94;5065608;28;20684;-86
2021/12/13 00:28:40;;;;;;;14.53;9.93;;;;;;;7.60;94.27;99187.66;5046478;28;21127;-86
2021/12/13 00:31:33;;;;;;;17.47;10.67;;;;;;;7.61;94.27;99191.97;5061201;28;21105;-86
2021/12/13 00:34:22;;;;;;;12.77;9.30;;;;;;;7.58;93.28;99192.06;5044049;28;20637;-86
2021/12/13 00:36:53;;;;;;;14.60;10.50;;;;;;;7.57;92.88;99188.63;5063872;28;21227;-86
2021/12/13 00:39:24;;;;;;;15.97;10.77;;;;;;;7.57;93.01;99187.78;5077190;28;20651;-86
2021/12/13 00:41:54;;;;;;;14.53;10.90;;;;;;;7.55;93.57;99187.00;5048273;28;20628;-86
2021/12/13 00:44:25;;;;;;;18.93;10.90;;;;;;;7.55;94.80;99187.00;5073960;28;20736;-85
2021/12/13 00:46:56;;;;;;;16.60;11.50;;;;;;;7.55;93.27;99192.19;5047238;28;20738;-85
2021/12/13 00:49:28;;;;;;;17.47;10.73;;;;;;;7.54;93.22;99188.72;5058716;28;20655;-85
2021/12/13 00:51:57;;;;;;;16.90;11.40;;;;;;;7.53;94.70;99191.38;5063334;28;20647;-85
2021/12/13 00:54:35;;;;;;;15.53;11.10;;;;;;;7.51;93.57;99185.41;5046638;28;21097;-86
2021/12/13 00:57:18;;;;;;;18.03;11.70;;;;;;;7.48;94.71;99193.31;5093535;28;20667;-85
2021/12/13 00:59:50;;;;;;;14.43;11.40;;;;;;;7.48;95.42;99198.50;5048185;28;20663;-85
2021/12/13 01:02:25;;;;;;;15.73;11.40;;;;;;;7.47;94.35;99190.78;5065520;28;20631;-85
2021/12/13 01:05:04;;;;;;;15.40;12.10;;;;;;;7.45;95.41;99198.63;5044530;28;20661;-85
2021/12/13 01:08:14;;;;;;;14.30;11.57;;;;;;;7.45;95.08;99200.38;5062798;28;20682;-85
2021/12/13 01:11:05;;;;;;;13.60;10.70;;;;;;;7.44;95.49;99196.94;5062414;28;21202;-86
2021/12/13 01:13:42;;;;;;;16.87;11.30;;;;;;;7.43;95.09;99196.97;5064216;28;21035;-85
2021/12/13 01:16:21;;;;;;;16.83;11.53;;;;;;;7.44;94.13;99202.13;5058658;28;20996;-85
2021/12/13 01:19:02;;;;;;;16.57;11.70;;;;;;;7.44;94.15;99196.94;5063129;28;20637;-85
2021/12/13 01:21:40;;;;;;;15.03;12.30;;;;;;;7.44;95.12;99199.53;5062277;28;20659;-85
2021/12/13 01:24:15;;;;;;;18.70;12.43;;;;;;;7.46;94.26;99197.75;5046127;28;21189;-85
2021/12/13 01:26:47;;;;;;;16.13;12.13;;;;;;;7.46;95.19;99195.13;5062281;28;20643;-85
2021/12/13 01:29:19;;;;;;;17.33;11.90;;;;;;;7.44;95.44;99196.94;5054156;28;20632;-85
2021/12/13 01:31:52;;;;;;;16.47;12.90;;;;;;;7.41;95.89;99193.63;5057182;28;21254;-85
2021/12/13 01:34:23;;;;;;;15.30;12.00;;;;;;;7.44;94.92;99186.53;5059855;28;20620;-85
2021/12/13 01:37:02;;;;;;;15.93;12.60;;;;;;;7.44;95.07;99204.72;5049559;28;21228;-85
2021/12/13 01:39:32;;;;;;;16.73;12.80;;;;;;;7.45;96.01;99203.81;5061345;28;20622;-85
2021/12/13 01:42:05;;;;;;;15.80;12.57;;;;;;;7.46;94.88;99202.94;5058608;28;20631;-85
2021/12/13 01:44:36;;;;;;;14.70;11.30;;;;;;;7.46;95.50;99195.13;5058587;28;20628;-85
2021/12/13 01:47:06;;;;;;;17.27;11.93;;;;;;;7.48;96.14;99203.69;5043405;28;21259;-86
2021/12/13 01:49:39;;;;;;;17.20;12.43;;;;;;;7.49;94.83;99205.41;5041464;28;20638;-85
2021/12/13 01:52:17;;;;;;;17.07;11.67;;;;;;;7.51;94.95;99208.78;5059919;28;20656;-86
2021/12/13 01:54:46;;;;;;;14.83;10.23;;;;;;;7.53;95.19;99212.16;5045534;28;20623;-85
2021/12/13 01:57:24;;;;;;;19.07;12.73;;;;;;;7.54;95.72;99200.88;5058281;28;20637;-85
2021/12/13 02:00:02;;;;;;;14.00;11.23;;;;;;;7.55;96.04;99206.00;5062545;28;20632;-86
2021/12/13 02:02:41;;;;;;;15.50;11.97;;;;;;;7.56;94.62;99205.13;5058178;28;20671;-85
2021/12/13 02:05:13;;;;;;;17.87;11.80;;;;;;;7.53;94.65;99206.97;5043985;28;20663;-85
2021/12/13 02:07:45;;;;;;;16.23;10.87;;;;;;;7.53;95.25;99201.75;5062458;28;20654;-85
2021/12/13 02:10:20;;;;;;;15.40;11.20;;;;;;;7.54;94.56;99203.47;5062715;28;20628;-85
2021/12/13 02:12:56;;;;;;;20.20;12.73;;;;;;;7.52;94.74;99200.94;5045169;28;20652;-85
2021/12/13 02:18:14;;;;;;;18.27;12.87;;;;;;;7.53;94.99;99206.97;5093184;28;21214;-86
2021/12/13 02:20:46;;;;;;;15.33;11.13;;;;;;;7.53;96.31;99210.41;5062888;28;20739;-85
2021/12/13 02:23:15;;;;;;;16.63;11.93;;;;;;;7.54;94.83;99206.06;5063394;28;20707;-85
2021/12/13 02:25:46;;;;;;;13.70;11.30;;;;;;;7.54;94.99;99211.25;5077750;28;20725;-85
2021/12/13 02:28:18;;;;;;;15.00;11.23;;;;;;;7.55;96.04;99212.97;5063547;28;20643;-85
2021/12/13 02:30:49;;;;;;;15.03;11.80;;;;;;;7.56;95.04;99206.84;5060469;28;20643;-86
2021/12/13 02:33:20;;;;;;;17.57;12.27;;;;;;;7.56;95.59;99204.25;5064893;28;20739;-85
2021/12/13 02:35:51;;;;;;;15.73;11.30;;;;;;;7.56;96.11;99199.06;5062327;28;20621;-85
2021/12/13 02:38:22;;;;;;;13.93;10.70;;;;;;;7.56;95.88;99199.91;5048987;28;20632;-85
2021/12/13 02:40:51;;;;;;;15.83;12.27;;;;;;;7.53;95.87;99191.38;5063302;28;20635;-85
2021/12/13 02:43:24;;;;;;;17.13;11.63;;;;;;;7.54;96.34;99198.28;5064335;28;21187;-86
2021/12/13 02:45:55;;;;;;;15.47;10.70;;;;;;;7.55;95.54;99193.03;5059244;28;20678;-86
2021/12/13 02:48:26;;;;;;;14.50;10.00;;;;;;;7.55;96.00;99190.44;5064289;28;20636;-85
2021/12/13 02:50:56;;;;;;;14.23;9.87;;;;;;;7.58;96.06;99203.28;5074491;28;20638;-86
2021/12/13 02:53:38;;;;;;;14.60;11.03;;;;;;;7.61;96.16;99199.75;5064798;28;20652;-86
2021/12/13 02:56:06;;;;;;;16.53;10.40;;;;;;;7.62;96.57;99198.81;5063380;28;20673;-85
2021/12/13 02:58:36;;;;;;;16.50;10.83;;;;;;;7.63;95.00;99197.91;5073032;28;20628;-85
2021/12/13 03:01:09;;;;;;;12.97;9.70;;;;;;;7.65;96.54;99203.88;5052228;28;20636;-85
2021/12/13 03:03:41;;;;;;;14.90;10.13;;;;;;;7.66;96.60;99203.00;5089359;27;20630;-85
2021/12/13 03:06:13;;;;;;;12.63;9.87;;;;;;;7.68;96.63;99195.97;5051787;28;20721;-85
2021/12/13 03:08:48;;;;;;;15.00;10.13;;;;;;;7.69;94.87;99198.53;5048808;28;21467;-85
2021/12/13 03:11:23;;;;;;;12.10;9.33;;;;;;;7.70;96.52;99204.56;5050888;28;20782;-85
2021/12/13 03:13:54;;;;;;;17.20;9.93;;;;;;;7.72;96.22;99202.75;5063121;28;20655;-85
2021/12/13 03:16:29;;;;;;;15.63;11.53;;;;;;;7.72;95.88;99200.16;5062641;28;21171;-85
2021/12/13 03:19:03;;;;;;;15.00;10.20;;;;;;;7.69;94.91;99210.66;5066880;28;20643;-85
2021/12/13 03:21:49;;;;;;;14.10;10.40;;;;;;;7.71;95.45;99206.25;5063814;28;21217;-85
2021/12/13 03:24:40;;;;;;;18.70;11.83;;;;;;;7.72;95.13;99205.34;5066823;28;21001;-85
2021/12/13 03:27:30;;;;;;;25.90;10.90;;;;;;;7.69;94.63;99200.28;5067817;28;20620;-85
2021/12/13 03:30:04;;;;;;;17.57;11.90;;;;;;;7.67;94.87;99204.69;5083717;28;20628;-85
2021/12/13 03:32:39;;;;;;;14.97;10.27;;;;;;;7.65;94.87;99206.50;5063848;28;21080;-85
2021/12/13 03:35:14;;;;;;;18.87;11.20;;;;;;;7.64;96.23;99207.41;5046329;28;20647;-85
2021/12/13 03:37:43;;;;;;;24.67;11.90;;;;;;;7.66;95.27;99210.78;5065257;28;21204;-85
2021/12/13 03:40:15;;;;;;;16.87;10.07;;;;;;;7.67;95.62;99215.09;5063268;28;20644;-85
2021/12/13 03:42:46;;;;;;;15.53;10.80;;;;;;;7.67;95.97;99213.31;5090847;28;21206;-85
2021/12/13 03:45:16;;;;;;;18.37;10.77;;;;;;;7.69;96.60;99218.44;5045073;28;20658;-85
2021/12/13 03:47:50;;;;;;;16.80;12.40;;;;;;;7.69;96.49;99215.84;5064556;28;20636;-86
2021/12/13 03:50:22;;;;;;;16.60;12.10;;;;;;;7.68;96.26;99211.56;5059374;28;21207;-85
2021/12/13 03:52:54;;;;;;;18.30;12.80;;;;;;;7.68;95.34;99207.22;5060250;28;21033;-85
2021/12/13 03:55:26;;;;;;;18.50;12.20;;;;;;;7.69;95.49;99205.47;5060152;28;21204;-85
2021/12/13 03:57:58;;;;;;;17.67;12.60;;;;;;;7.69;95.80;99202.88;5048094;28;21265;-85
2021/12/13 04:00:28;;;;;;;17.83;12.43;;;;;;;7.70;95.35;99209.78;5063815;28;20640;-85
2021/12/13 04:02:59;;;;;;;16.00;11.50;;;;;;;7.71;96.64;99216.63;5060628;28;20636;-85
2021/12/13 04:05:29;;;;;;;15.53;11.73;;;;;;;7.70;95.17;99215.81;5063372;28;20637;-85
2021/12/13 04:08:01;;;;;;;17.27;12.93;;;;;;;7.71;95.57;99211.44;5064238;28;20666;-85
2021/12/13 04:10:32;;;;;;;21.30;12.10;;;;;;;7.69;96.02;99213.25;5079730;28;21203;-85
2021/12/13 04:13:11;;;;;;;17.63;12.67;;;;;;;7.70;96.16;99217.56;5064209;28;20631;-85
2021/12/13 04:15:53;;;;;;;20.60;12.27;;;;;;;7.69;95.54;99208.06;5066616;28;22100;-85
2021/12/13 04:18:40;;;;;;;17.97;11.93;;;;;;;7.72;96.08;99210.53;5062819;28;20628;-85
2021/12/13 04:21:10;;;;;;;17.30;12.10;;;;;;;7.74;95.49;99216.50;5047952;28;20626;-85
2021/12/13 04:23:40;;;;;;;18.27;10.87;;;;;;;7.70;96.27;99209.78;5046912;28;20639;-85
2021/12/13 04:26:11;;;;;;;15.83;11.70;;;;;;;7.69;95.82;99214.09;5058985;28;20635;-85
2021/12/13 04:28:42;;;;;;;18.43;11.70;;;;;;;7.69;96.83;99213.25;5060328;28;20632;-85
2021/12/13 04:31:15;;;;;;;21.77;11.07;;;;;;;7.69;96.95;99231.44;5046918;28;20632;-85
2021/12/13 04:33:45;;;;;;;19.10;12.13;;;;;;;7.70;96.38;99226.19;5062483;28;20659;-85
2021/12/13 04:36:17;;;;;;;17.83;11.40;;;;;;;7.74;96.65;99226.91;5057909;28;20643;-85
2021/12/13 04:38:51;;;;;;;14.33;9.30;;;;;;;7.75;95.41;99231.19;5066020;28;20657;-85
2021/12/13 04:41:29;;;;;;;17.20;10.77;;;;;;;7.77;97.17;99234.56;5062696;28;20647;-85
2021/12/13 04:43:59;;;;;;;13.27;9.37;;;;;;;7.77;96.23;99238.03;5047826;28;20646;-84
2021/12/13 04:46:29;;;;;;;13.07;8.60;;;;;;;7.78;95.75;99244.06;5065317;28;20636;-85
2021/12/13 04:48:59;;;;;;;13.37;9.10;;;;;;;7.78;97.17;99233.69;5061018;28;20632;-85
2021/12/13 04:51:36;;;;;;;15.37;8.87;;;;;;;7.79;96.50;99235.38;5065566;28;20673;-85
2021/12/13 04:54:06;;;;;;;14.20;8.63;;;;;;;7.82;95.41;99245.59;5058700;28;20672;-85
2021/12/13 04:56:35;;;;;;;12.63;8.40;;;;;;;7.82;95.86;99240.41;5079151;28;20646;-85
2021/12/13 04:59:05;;;;;;;15.57;9.60;;;;;;;7.85;95.46;99246.34;5062338;28;20640;-85
2021/12/13 05:01:34;;;;;;;16.00;9.47;;;;;;;7.88;96.38;99245.38;5063255;28;20628;-85
2021/12/13 05:04:04;;;;;;;12.50;8.07;;;;;;;7.89;95.72;99247.06;5045845;28;20628;-85
2021/12/13 05:06:35;;;;;;;15.10;9.00;;;;;;;7.89;96.54;99241.88;5093938;28;20655;-85
2021/12/13 05:09:06;;;;;;;13.50;9.23;;;;;;;7.88;95.38;99245.38;5062180;28;20656;-84
2021/12/13 05:11:37;;;;;;;17.30;10.20;;;;;;;7.89;96.00;99244.47;5065108;28;20664;-85
2021/12/13 05:14:07;;;;;;;13.90;9.53;;;;;;;7.88;95.46;99247.97;5047159;28;21038;-84
2021/12/13 05:16:43;;;;;;;17.40;10.33;;;;;;;7.87;96.82;99243.69;5064237;28;20624;-85
2021/12/13 05:19:14;;;;;;;15.10;9.90;;;;;;;7.85;96.71;99248.97;5062150;28;21312;-84
2021/12/13 05:21:45;;;;;;;13.63;8.90;;;;;;;7.84;96.70;99243.81;5064480;28;21011;-84
2021/12/13 05:24:17;;;;;;;18.97;9.27;;;;;;;7.82;95.34;99243.88;5048576;28;20730;-85
2021/12/13 05:26:52;;;;;;;15.57;9.40;;;;;;;7.83;96.90;99242.13;5048166;28;20700;-85
2021/12/13 05:29:25;;;;;;;15.33;8.70;;;;;;;7.84;95.77;99246.41;5067445;28;20635;-85
2021/12/13 05:32:04;;;;;;;11.90;7.30;;;;;;;7.86;97.08;99249.78;5063411;28;20650;-85
2021/12/13 05:34:37;;;;;;;12.40;7.10;;;;;;;7.86;96.15;99255.00;5064174;28;20652;-85
2021/12/13 05:37:07;;;;;;;11.50;7.73;;;;;;;7.88;96.68;99255.75;5065313;28;20636;-85
2021/12/13 05:39:37;;;;;;;10.03;7.20;;;;;;;7.90;96.12;99261.75;5083552;28;20632;-85
2021/12/13 05:42:10;;;;;;;13.00;7.10;;;;;;;7.91;96.81;99266.91;5093462;28;20722;-85
2021/12/13 05:44:43;;;;;;;12.20;7.50;;;;;;;7.96;96.55;99272.75;5041869;28;20644;-85
2021/12/13 05:47:21;;;;;;;10.00;6.90;;;;;;;7.96;96.47;99265.78;5074982;28;20637;-85
2021/12/13 05:49:51;;;;;;;14.80;7.90;;;;;;;7.96;95.76;99274.50;5058897;28;20640;-85
2021/12/13 05:52:24;;;;;;;9.60;6.90;;;;;;;7.97;96.28;99272.69;5060352;28;20999;-85
2021/12/13 05:54:57;;;;;;;10.70;7.80;;;;;;;7.97;95.72;99274.44;5063135;28;20758;-85
2021/12/13 05:57:29;;;;;;;9.40;6.27;;;;;;;7.98;96.61;99279.59;5065696;28;20634;-86
2021/12/13 06:00:00;;;;;;;11.07;6.80;;;;;;;7.96;96.26;99280.53;5061001;28;20626;-85
2021/12/13 06:03:00;;;;;;;12.33;7.17;;;;;;;7.96;95.81;99284.91;5066209;28;22069;-85
2021/12/13 06:05:32;;;;;;;10.10;7.30;;;;;;;7.96;95.30;99281.38;5067572;28;20632;-85
2021/12/13 06:08:04;;;;;;;11.20;6.67;;;;;;;7.98;96.61;99289.09;5050089;28;20767;-85
2021/12/13 06:10:41;;;;;;;10.17;6.37;;;;;;;7.98;96.33;99273.53;5061058;28;20681;-85
2021/12/13 06:13:14;;;;;;;10.43;7.10;;;;;;;7.99;95.16;99280.41;5063837;28;20632;-84
2021/12/13 06:15:44;;;;;;;11.00;6.33;;;;;;;8.00;96.46;99275.16;5050097;28;20656;-85
2021/12/13 06:18:17;;;;;;;10.10;6.87;;;;;;;8.00;96.90;99267.38;5064153;28;20635;-85
2021/12/13 06:20:50;;;;;;;10.00;6.30;;;;;;;8.01;95.59;99266.47;5065706;28;20632;-85
2021/12/13 06:23:21;;;;;;;18.63;11.47;;;;;;;8.02;95.49;99277.69;5066102;28;20635;-85
2021/12/13 06:25:54;;;;;;;21.67;12.10;;;;;;;8.03;95.99;99277.66;5049288;28;20631;-85
2021/12/13 06:28:26;;;;;;;16.90;11.37;;;;;;;8.01;94.68;99281.19;5063758;28;20659;-85
2021/12/13 06:31:00;;;;;;;17.57;11.60;;;;;;;8.01;94.63;99284.66;5051960;28;20630;-85
2021/12/13 06:33:28;;;;;;;16.10;11.47;;;;;;;8.00;96.23;99277.75;5064836;28;20667;-86
2021/12/13 06:35:58;;;;;;;16.53;10.80;;;;;;;8.00;94.53;99275.16;5045098;28;21281;-85
2021/12/13 06:38:34;;;;;;;18.90;11.90;;;;;;;8.01;94.68;99269.06;5053133;28;20639;-86
2021/12/13 06:41:09;;;;;;;18.30;11.07;;;;;;;8.02;95.75;99273.34;5062033;28;20642;-85
2021/12/13 06:43:41;;;;;;;20.10;11.20;;;;;;;8.02;94.07;99278.53;5083986;28;21245;-84
2021/12/13 06:46:11;;;;;;;19.50;12.27;;;;;;;8.00;95.51;99277.75;5083101;28;20631;-85
2021/12/13 06:48:42;;;;;;;18.57;11.93;;;;;;;7.99;94.23;99291.66;5048420;28;20615;-85
2021/12/13 06:51:15;;;;;;;20.97;11.97;;;;;;;7.99;95.27;99294.25;5068493;28;20633;-85
2021/12/13 06:54:01;;;;;;;20.13;12.23;;;;;;;7.98;95.35;99296.91;5053131;28;20630;-86
2021/12/13 06:56:31;;;;;;;19.87;12.20;;;;;;;7.98;94.80;99300.38;5066867;28;20659;-85
2021/12/13 06:59:02;;;;;;;21.03;12.50;;;;;;;7.98;94.36;99295.16;5047073;28;20706;-88
2021/12/13 07:01:32;;;;;;;21.93;11.47;;;;;;;7.95;95.18;99288.38;5062615;28;20731;-87
2021/12/13 07:04:05;;;;;;;16.23;9.57;;;;;;;7.93;95.17;99292.81;5050180;28;20634;-87
2021/12/13 07:06:33;;;;;;;16.13;10.43;;;;;;;7.94;95.97;99292.75;5049603;28;20666;-85
2021/12/13 07:09:11;;;;;;;19.93;11.00;;;;;;;7.93;94.62;99298.84;5059201;28;20667;-85
2021/12/13 07:11:46;;;;;;;19.30;11.87;;;;;;;7.96;94.54;99305.69;5067083;28;20659;-86
2021/12/13 07:14:18;;;;;;;19.37;11.50;;;;;;;7.96;95.44;99309.94;5064804;28;20647;-86
2021/12/13 07:16:51;;;;;;;18.27;11.37;;;;;;;7.96;94.91;99313.47;5093259;28;20655;-86
2021/12/13 07:19:23;;;;;;;17.73;10.83;;;;;;;7.97;95.45;99316.84;5058369;28;20703;-84
2021/12/13 07:21:56;;;;;;;17.23;10.10;;;;;;;7.98;95.77;99318.53;5070650;28;20658;-84
2021/12/13 07:24:30;;;;;;;20.90;11.07;;;;;;;7.97;95.79;99310.81;5063982;28;20633;-84
2021/12/13 07:27:04;;;;;;;20.80;10.93;;;;;;;7.98;94.76;99312.47;5060701;28;20643;-84
2021/12/13 07:29:39;;;;;;;19.33;10.10;;;;;;;7.98;95.61;99299.50;5061255;28;20694;-84
2021/12/13 07:32:12;;;;;;;21.60;11.93;;;;;;;8.01;96.07;99315.84;5057492;28;20631;-84
2021/12/13 07:35:00;;;;;;;15.80;10.40;;;;;;;8.02;95.42;99312.31;5060055;28;20616;-84
2021/12/13 07:37:49;;;;;;;16.40;10.17;;;;;;;8.03;95.58;99306.22;5065132;28;20634;-84
2021/12/13 07:40:28;;;;;;;20.10;11.40;;;;;;;8.06;95.57;99311.28;5061800;28;20635;-84
2021/12/13 07:43:05;;;;;;;19.10;11.37;;;;;;;8.09;94.90;99307.75;5067088;28;20624;-85
2021/12/13 07:45:40;;;;;;;17.20;10.50;;;;;;;8.11;94.55;99316.31;5078503;28;21160;-85
2021/12/13 07:48:12;;;;;;;18.97;11.97;;;;;;;8.12;95.51;99318.88;5053551;28;20706;-86
2021/12/13 07:50:41;;;;;;;20.77;11.97;;;;;;;8.13;95.35;99317.13;5063400;28;20635;-85
2021/12/13 07:53:12;;;;;;;21.93;11.20;;;;;;;8.16;95.67;99315.28;5057327;28;20627;-84
2021/12/13 07:55:46;;;;;;;21.00;10.73;;;;;;;8.18;95.79;99308.25;5064495;28;21207;-85
2021/12/13 07:58:22;;;;;;;21.70;12.77;;;;;;;8.20;95.10;99326.38;5046101;28;20834;-85
2021/12/13 08:00:52;;;;;;;19.80;10.90;;;;;;;8.21;95.74;99330.66;5049643;28;20635;-84
2021/12/13 08:03:26;;;;;;;19.90;11.10;;;;;;;8.23;95.36;99319.31;5064888;28;21009;-84
2021/12/13 08:05:54;;;;;;;19.63;10.70;;;;;;;8.27;94.65;99318.28;5058094;28;20642;-84
2021/12/13 08:08:25;;;;;;;17.33;10.60;;;;;;;8.25;95.71;99321.84;5066926;28;20623;-83
2021/12/13 08:10:59;;;;;;;20.60;10.50;;;;;;;8.28;94.79;99329.50;5061616;28;20727;-84
2021/12/13 08:13:29;;;;;;;15.23;9.40;;;;;;;8.33;94.91;99327.56;5062804;28;20728;-84
2021/12/13 08:16:02;;;;;;;14.70;8.10;;;;;;;8.33;94.99;99325.84;5042364;28;20644;-84
2021/12/13 08:18:32;;;;;;;15.47;9.00;;;;;;;8.36;94.50;99323.13;5059753;28;21215;-84
2021/12/13 08:21:04;;;;;;;13.97;8.70;;;;;;;8.42;95.88;99327.22;5066291;28;20642;-84
2021/12/13 08:23:35;;;;;;;17.17;9.70;;;;;;;8.51;94.71;99328.53;5068966;28;20620;-84
2021/12/13 08:26:07;;;;;;;14.17;8.30;;;;;;;8.59;95.59;99325.63;5067983;28;21185;-83
2021/12/13 08:28:42;;;;;;;82.30;19.83;;;;;;;8.65;95.52;99321.03;5060874;28;20623;-84
2021/12/13 08:31:22;;;;;;;41.03;12.83;;;;;;;8.69;94.90;99316.53;5058640;28;20628;-84
2021/12/13 08:34:01;;;;;;;23.17;9.97;;;;;;;8.72;95.35;99319.00;5050607;28;20659;-84
2021/12/13 08:36:31;;;;;;;18.27;11.33;;;;;;;8.77;94.69;99324.88;5057181;28;20692;-84
2021/12/13 08:39:04;;;;;;;17.40;12.37;;;;;;;8.80;94.30;99320.38;5067335;28;21287;-84
2021/12/13 08:41:35;;;;;;;20.57;11.87;;;;;;;8.81;94.90;99326.44;5066405;28;21210;-84
2021/12/13 08:44:15;;;;;;;22.20;11.93;;;;;;;8.82;94.66;99326.38;5062956;28;20686;-84
2021/12/13 08:46:46;;;;;;;19.20;11.40;;;;;;;8.85;94.68;99330.59;5060282;28;20731;-84
2021/12/13 08:49:18;;;;;;;20.50;12.00;;;;;;;8.86;94.62;99337.50;5057508;28;20740;-84
2021/12/13 08:51:56;;;;;;;22.27;11.90;;;;;;;8.86;94.57;99335.75;5058721;28;20621;-84
2021/12/13 08:54:36;;;;;;;25.10;15.43;;;;;;;8.82;94.44;99343.72;5059503;28;20643;-84
2021/12/13 08:57:05;;;;;;;22.10;13.60;;;;;;;8.80;95.20;99343.78;5061251;28;20706;-84
2021/12/13 08:59:34;;;;;;;19.37;11.30;;;;;;;8.78;94.22;99344.75;5055458;28;20660;-84
2021/12/13 09:02:09;;;;;;;24.87;12.70;;;;;;;8.78;95.16;99348.22;5064010;28;21183;-84
2021/12/13 09:04:55;;;;;;;50.27;22.40;;;;;;;8.82;95.14;99343.72;5058483;28;20656;-84
2021/12/13 09:07:27;;;;;;;35.13;16.40;;;;;;;8.87;95.00;99349.59;5062062;28;20655;-84
2021/12/13 09:09:56;;;;;;;33.60;15.00;;;;;;;8.92;95.19;99349.31;5063418;28;20632;-84
2021/12/13 09:12:30;;;;;;;22.80;12.83;;;;;;;8.94;95.37;99342.34;5064285;28;21001;-84
2021/12/13 09:15:02;;;;;;;18.80;12.47;;;;;;;8.95;94.99;99349.19;5062917;28;20643;-84
2021/12/13 09:17:37;;;;;;;29.20;22.23;;;;;;;8.94;95.04;99349.25;5036341;28;20654;-84
2021/12/13 09:20:15;;;;;;;14.33;10.03;;;;;;;8.99;95.15;99363.78;5075193;28;20693;-84
2021/12/13 09:22:51;;;;;;;29.00;22.63;;;;;;;9.02;95.66;99361.06;5044034;28;20632;-84
2021/12/13 09:25:31;;;;;;;13.70;8.60;;;;;;;9.05;95.20;99368.72;5055843;28;20632;-84
2021/12/13 09:28:02;;;;;;;8.33;6.03;;;;;;;9.05;95.37;99371.34;5050145;28;20635;-84
2021/12/13 09:30:37;;;;;;;10.93;8.00;;;;;;;9.02;94.34;99366.25;5046922;28;20735;-84
2021/12/13 09:33:11;;;;;;;12.63;8.20;;;;;;;9.02;94.86;99368.88;5058028;28;21248;-84
2021/12/13 09:35:45;;;;;;;15.20;12.17;;;;;;;9.06;95.15;99362.59;5064229;28;20721;-84
2021/12/13 09:38:23;;;;;;;22.03;7.57;;;;;;;9.09;95.98;99359.88;5068115;28;20731;-84
2021/12/13 09:40:57;;;;;;;14.87;7.80;;;;;;;9.08;95.82;99366.00;5062009;28;20631;-84
2021/12/13 09:43:36;;;;;;;11.70;7.70;;;;;;;9.15;95.96;99364.81;5082842;28;20638;-87
2021/12/13 09:46:05;;;;;;;10.50;6.97;;;;;;;9.20;96.23;99360.28;5053712;28;20722;-82
2021/12/13 09:48:40;;;;;;;10.13;7.30;;;;;;;9.24;96.48;99359.22;5062662;28;21144;-84
2021/12/13 09:51:13;;;;;;;9.67;6.90;;;;;;;9.31;96.25;99354.63;5070492;28;20639;-84
2021/12/13 09:53:43;;;;;;;11.97;7.97;;;;;;;9.34;95.93;99360.53;5080854;28;21267;-86
2021/12/13 09:56:14;;;;;;;13.40;8.30;;;;;;;9.36;95.39;99360.47;5053045;28;21186;-86
2021/12/13 09:58:45;;;;;;;17.93;10.13;;;;;;;9.37;95.10;99365.59;5049491;28;20664;-86
2021/12/13 10:01:18;;;;;;;14.17;8.67;;;;;;;9.40;95.43;99357.66;5093847;27;20964;-86
2021/12/13 10:03:53;;;;;;;12.93;7.77;;;;;;;9.38;95.19;99352.53;5066108;28;20635;-85
2021/12/13 10:06:24;;;;;;;13.10;8.13;;;;;;;9.39;95.52;99354.19;5077177;28;20746;-85
2021/12/13 10:08:57;;;;;;;12.30;8.93;;;;;;;9.42;95.46;99348.03;5098881;28;20722;-85
2021/12/13 10:11:29;;;;;;;11.33;8.37;;;;;;;9.45;95.22;99350.50;5050982;28;20651;-85
2021/12/13 10:13:57;;;;;;;11.30;7.27;;;;;;;9.48;95.64;99348.59;5060556;28;20647;-86
2021/12/13 10:16:31;;;;;;;9.20;6.47;;;;;;;9.50;95.41;99343.31;5062790;28;21191;-86
2021/12/13 10:19:03;;;;;;;13.17;8.07;;;;;;;9.53;95.38;99351.00;5050120;28;20648;-86
2021/12/13 10:21:33;;;;;;;12.60;8.37;;;;;;;9.54;95.21;99342.28;5058772;28;21238;-86
2021/12/13 10:24:05;;;;;;;12.73;6.87;;;;;;;9.58;95.06;99333.44;5063915;28;20739;-86
2021/12/13 10:26:39;;;;;;;10.13;6.50;;;;;;;9.61;95.44;99328.09;5063465;28;20628;-86
2021/12/13 10:29:10;;;;;;;10.30;7.00;;;;;;;9.59;95.34;99330.75;5081770;28;20625;-86
2021/12/13 10:31:45;;;;;;;18.20;7.00;;;;;;;9.66;95.28;99331.31;5061163;28;20640;-85
2021/12/13 10:34:17;;;;;;;8.70;6.30;;;;;;;9.69;94.98;99331.19;5078536;28;20639;-86
2021/12/13 10:36:50;;;;;;;8.27;5.73;;;;;;;9.72;95.41;99337.09;5061904;28;21241;-86
2021/12/13 10:39:22;;;;;;;11.57;6.33;;;;;;;9.77;95.26;99335.09;5063434;28;20623;-86
2021/12/13 10:42:08;;;;;;;8.47;6.43;;;;;;;9.79;95.07;99330.69;5078150;28;21506;-87
2021/12/13 10:44:43;;;;;;;7.37;5.67;;;;;;;9.84;95.12;99331.31;5058186;28;20730;-86
2021/12/13 10:47:16;;;;;;;10.53;7.27;;;;;;;9.81;94.50;99334.06;5048773;28;21194;-87
2021/12/13 10:49:48;;;;;;;8.77;7.00;;;;;;;9.83;94.29;99334.00;5052548;28;20648;-87
2021/12/13 10:52:21;;;;;;;6.93;4.80;;;;;;;9.84;94.58;99337.38;5047030;28;21308;-87
2021/12/13 10:54:52;;;;;;;6.80;4.90;;;;;;;9.87;93.73;99342.44;5047079;28;21161;-86
2021/12/13 10:57:24;;;;;;;7.60;4.80;;;;;;;9.85;94.50;99328.66;5057453;28;20673;-86
2021/12/13 10:59:52;;;;;;;5.00;4.20;;;;;;;9.86;94.47;99324.28;5090954;28;20636;-85
2021/12/13 11:02:26;;;;;;;7.70;5.93;;;;;;;9.89;94.37;99319.78;5065438;28;20620;-86
2021/12/13 11:04:58;;;;;;;8.13;6.07;;;;;;;10.00;94.82;99321.94;5059304;28;20733;-86
2021/12/13 11:07:27;;;;;;;14.60;11.13;;;;;;;10.10;95.28;99325.78;5066037;28;20763;-85
2021/12/13 11:09:57;;;;;;;6.30;4.80;;;;;;;10.17;95.16;99316.78;5047008;28;20622;-85
2021/12/13 11:12:28;;;;;;;6.53;5.43;;;;;;;10.22;93.24;99317.38;5064303;28;20658;-86
2021/12/13 11:15:00;;;;;;;14.67;11.50;;;;;;;10.22;93.50;99305.19;5061429;28;20994;-85
2021/12/13 11:17:32;;;;;;;10.20;9.00;;;;;;;10.29;93.63;99310.97;5062495;28;20643;-86
2021/12/13 11:20:06;;;;;;;6.17;4.80;;;;;;;10.29;93.93;99306.59;5049359;28;20647;-85
2021/12/13 11:22:34;;;;;;;5.60;4.67;;;;;;;10.30;93.61;99313.50;5063166;28;20634;-86
2021/12/13 11:25:14;;;;;;;7.43;5.47;;;;;;;10.32;93.39;99306.44;5091494;28;21218;-86
2021/12/13 11:27:43;;;;;;;6.13;4.80;;;;;;;10.34;93.36;99302.88;5052396;28;20662;-85
2021/12/13 11:30:14;;;;;;;6.90;4.47;;;;;;;10.38;94.10;99300.94;5080931;28;20994;-85
2021/12/13 11:33:22;;;;;;;6.50;5.00;;;;;;;10.42;93.88;99294.69;5047275;28;20624;-85
2021/12/13 11:36:27;;;;;;;8.20;4.63;;;;;;;10.47;93.40;99292.69;5060222;28;20633;-85
2021/12/13 11:39:29;;;;;;;5.70;4.07;;;;;;;10.50;94.08;99293.38;5042080;28;21314;-86
2021/12/13 11:42:06;;;;;;;3.10;2.50;;;;;;;10.51;93.96;99299.44;5060104;28;20977;-85
2021/12/13 11:44:55;;;;;;;3.77;3.10;;;;;;;10.51;93.95;99299.44;5063095;28;20742;-86
2021/12/13 11:47:44;;;;;;;3.90;2.97;;;;;;;10.53;92.92;99295.81;5061558;28;20755;-85
2021/12/13 11:50:50;;;;;;;3.20;2.50;;;;;;;10.60;94.32;99296.34;5063474;28;20758;-86
2021/12/13 11:53:32;;;;;;;2.87;2.50;;;;;;;10.65;94.44;99297.00;5044964;28;20631;-86
2021/12/13 11:56:15;;;;;;;3.40;2.47;;;;;;;10.68;94.26;99294.25;5077870;28;20640;-85
2021/12/13 11:59:18;;;;;;;3.40;2.43;;;;;;;10.65;93.51;99289.19;5071254;28;20658;-86
2021/12/13 12:02:01;;;;;;;15.03;10.30;;;;;;;10.65;92.95;99297.00;5056887;28;20718;-86
2021/12/13 12:05:30;;;;;;;6.27;4.93;;;;;;;10.64;93.75;99292.69;5063206;28;21015;-86